Terminal Aerodrome Forecast
Issued by NWS

Home | Current Version | Previous Version | Text Only | Print | Product List | Glossary Off
Versions: 1 2 3 4 5 6 7 8 9 10 11 12 13 14

000
FTUS43 KTOP 042320
TAFMHK
TAF
KMHK 042320Z 0500/0524 12004KT P6SM SCT200
     FM051000 16008KT P6SM VCTS BKN080CB
     FM051500 17012G22KT P6SM SCT035=

USA.gov is the U.S. government's official web portal to all federal, state and local government web resources and services.